sensor_id;sensor_type;location;lat;lon;timestamp;pressure;altitude;pressure_sealevel;temperature;humidity
32933;BME280;19444;50.518;10.870;2023-02-02T00:00:49;96490.59;;;1.32;100.00
32933;BME280;19444;50.518;10.870;2023-02-02T00:03:46;96484.78;;;1.30;100.00
32933;BME280;19444;50.518;10.870;2023-02-02T00:06:46;96474.81;;;1.37;100.00
32933;BME280;19444;50.518;10.870;2023-02-02T00:09:43;96482.78;;;1.42;100.00
32933;BME280;19444;50.518;10.870;2023-02-02T00:12:40;96489.38;;;1.40;100.00
32933;BME280;19444;50.518;10.870;2023-02-02T00:15:37;96475.63;;;1.38;100.00
32933;BME280;19444;50.518;10.870;2023-02-02T00:18:33;96474.22;;;1.30;100.00
32933;BME280;19444;50.518;10.870;2023-02-02T00:21:30;96473.47;;;1.35;100.00
32933;BME280;19444;50.518;10.870;2023-02-02T00:24:27;96483.28;;;1.39;100.00
32933;BME280;19444;50.518;10.870;2023-02-02T00:27:24;96487.47;;;1.35;100.00
32933;BME280;19444;50.518;10.870;2023-02-02T00:30:21;96486.66;;;1.35;100.00
32933;BME280;19444;50.518;10.870;2023-02-02T00:33:18;96504.84;;;1.31;100.00
32933;BME280;19444;50.518;10.870;2023-02-02T00:36:15;96515.66;;;1.30;100.00
32933;BME280;19444;50.518;10.870;2023-02-02T00:39:18;96515.69;;;1.35;100.00
32933;BME280;19444;50.518;10.870;2023-02-02T00:42:15;96502.28;;;1.14;100.00
32933;BME280;19444;50.518;10.870;2023-02-02T00:45:12;96514.06;;;1.29;100.00
32933;BME280;19444;50.518;10.870;2023-02-02T00:48:12;96529.00;;;1.45;100.00
32933;BME280;19444;50.518;10.870;2023-02-02T00:51:09;96513.72;;;1.47;100.00
32933;BME280;19444;50.518;10.870;2023-02-02T00:54:05;96505.25;;;1.45;100.00
32933;BME280;19444;50.518;10.870;2023-02-02T00:57:02;96518.94;;;1.42;100.00
32933;BME280;19444;50.518;10.870;2023-02-02T00:59:59;96511.31;;;1.46;100.00
32933;BME280;19444;50.518;10.870;2023-02-02T01:02:56;96507.41;;;1.48;100.00
32933;BME280;19444;50.518;10.870;2023-02-02T01:05:59;96516.31;;;1.42;100.00
32933;BME280;19444;50.518;10.870;2023-02-02T01:08:56;96518.41;;;1.40;100.00
32933;BME280;19444;50.518;10.870;2023-02-02T01:11:53;96511.28;;;1.40;100.00
32933;BME280;19444;50.518;10.870;2023-02-02T01:14:50;96516.31;;;1.42;100.00
32933;BME280;19444;50.518;10.870;2023-02-02T01:17:46;96509.44;;;1.41;100.00
32933;BME280;19444;50.518;10.870;2023-02-02T01:20:43;96507.78;;;1.35;100.00
32933;BME280;19444;50.518;10.870;2023-02-02T01:23:40;96509.44;;;1.41;100.00
32933;BME280;19444;50.518;10.870;2023-02-02T01:26:37;96516.56;;;1.40;100.00
32933;BME280;19444;50.518;10.870;2023-02-02T01:29:34;96515.97;;;1.33;100.00
32933;BME280;19444;50.518;10.870;2023-02-02T01:32:30;96517.06;;;1.37;100.00
32933;BME280;19444;50.518;10.870;2023-02-02T01:35:27;96523.97;;;1.43;100.00
32933;BME280;19444;50.518;10.870;2023-02-02T01:38:24;96518.31;;;1.30;100.00
32933;BME280;19444;50.518;10.870;2023-02-02T01:41:22;96522.22;;;1.27;100.00
32933;BME280;19444;50.518;10.870;2023-02-02T01:47:56;96540.75;;;1.32;100.00
32933;BME280;19444;50.518;10.870;2023-02-02T01:50:59;96536.00;;;1.29;100.00
32933;BME280;19444;50.518;10.870;2023-02-02T01:53:57;96533.03;;;1.26;100.00
32933;BME280;19444;50.518;10.870;2023-02-02T01:56:58;96531.50;;;1.30;100.00
32933;BME280;19444;50.518;10.870;2023-02-02T01:59:56;96536.97;;;1.23;100.00
32933;BME280;19444;50.518;10.870;2023-02-02T02:03:01;96530.81;;;1.18;100.00
32933;BME280;19444;50.518;10.870;2023-02-02T02:06:04;96535.72;;;1.31;100.00
32933;BME280;19444;50.518;10.870;2023-02-02T02:09:04;96540.03;;;1.15;100.00
32933;BME280;19444;50.518;10.870;2023-02-02T02:12:01;96553.75;;;1.12;100.00
32933;BME280;19444;50.518;10.870;2023-02-02T02:14:58;96539.91;;;1.05;100.00
32933;BME280;19444;50.518;10.870;2023-02-02T02:18:27;96571.09;;;1.08;100.00
32933;BME280;19444;50.518;10.870;2023-02-02T02:32:49;96559.97;;;1.28;100.00
32933;BME280;19444;50.518;10.870;2023-02-02T02:36:13;96559.00;;;1.34;100.00
32933;BME280;19444;50.518;10.870;2023-02-02T02:42:26;96553.78;;;1.17;100.00
32933;BME280;19444;50.518;10.870;2023-02-02T02:45:26;96558.38;;;1.27;100.00
32933;BME280;19444;50.518;10.870;2023-02-02T02:48:23;96563.06;;;1.20;100.00
32933;BME280;19444;50.518;10.870;2023-02-02T02:54:44;96576.00;;;1.43;100.00
32933;BME280;19444;50.518;10.870;2023-02-02T02:57:57;96571.56;;;1.49;100.00
32933;BME280;19444;50.518;10.870;2023-02-02T03:01:20;96564.13;;;1.46;100.00
32933;BME280;19444;50.518;10.870;2023-02-02T03:04:43;96560.84;;;1.33;100.00
32933;BME280;19444;50.518;10.870;2023-02-02T03:08:45;96565.03;;;1.29;100.00
32933;BME280;19444;50.518;10.870;2023-02-02T03:11:22;96567.34;;;1.26;100.00
32933;BME280;19444;50.518;10.870;2023-02-02T03:14:18;96577.44;;;1.29;100.00
32933;BME280;19444;50.518;10.870;2023-02-02T03:17:15;96575.81;;;1.28;100.00
32933;BME280;19444;50.518;10.870;2023-02-02T03:20:12;96572.19;;;1.34;100.00
32933;BME280;19444;50.518;10.870;2023-02-02T03:23:09;96577.59;;;1.44;100.00
32933;BME280;19444;50.518;10.870;2023-02-02T03:26:05;96566.38;;;1.32;100.00
32933;BME280;19444;50.518;10.870;2023-02-02T03:29:02;96574.16;;;1.22;100.00
32933;BME280;19444;50.518;10.870;2023-02-02T03:31:59;96594.28;;;1.28;100.00
32933;BME280;19444;50.518;10.870;2023-02-02T03:34:56;96595.84;;;1.24;100.00
32933;BME280;19444;50.518;10.870;2023-02-02T03:37:53;96580.38;;;1.32;100.00
32933;BME280;19444;50.518;10.870;2023-02-02T03:40:50;96603.88;;;1.34;100.00
32933;BME280;19444;50.518;10.870;2023-02-02T03:43:47;96597.94;;;1.22;100.00
32933;BME280;19444;50.518;10.870;2023-02-02T03:46:44;96604.59;;;1.07;100.00
32933;BME280;19444;50.518;10.870;2023-02-02T03:49:40;96596.25;;;1.16;100.00
32933;BME280;19444;50.518;10.870;2023-02-02T03:52:37;96599.28;;;1.24;100.00
32933;BME280;19444;50.518;10.870;2023-02-02T03:55:34;96604.19;;;1.16;100.00
32933;BME280;19444;50.518;10.870;2023-02-02T03:58:31;96611.78;;;1.12;100.00
32933;BME280;19444;50.518;10.870;2023-02-02T04:01:28;96613.69;;;1.17;100.00
32933;BME280;19444;50.518;10.870;2023-02-02T04:04:25;96619.63;;;1.07;100.00
32933;BME280;19444;50.518;10.870;2023-02-02T04:07:22;96623.72;;;0.98;100.00
32933;BME280;19444;50.518;10.870;2023-02-02T04:10:19;96625.16;;;1.05;100.00
32933;BME280;19444;50.518;10.870;2023-02-02T04:13:16;96634.13;;;1.04;100.00
32933;BME280;19444;50.518;10.870;2023-02-02T04:16:12;96622.56;;;0.89;100.00
32933;BME280;19444;50.518;10.870;2023-02-02T04:19:09;96637.19;;;0.96;100.00
32933;BME280;19444;50.518;10.870;2023-02-02T04:22:08;96627.72;;;1.00;100.00
32933;BME280;19444;50.518;10.870;2023-02-02T04:25:05;96634.22;;;0.93;100.00
32933;BME280;19444;50.518;10.870;2023-02-02T04:28:02;96633.81;;;1.01;100.00
32933;BME280;19444;50.518;10.870;2023-02-02T04:30:59;96640.31;;;0.93;100.00
32933;BME280;19444;50.518;10.870;2023-02-02T04:33:55;96647.47;;;0.98;100.00
32933;BME280;19444;50.518;10.870;2023-02-02T04:36:52;96648.28;;;0.98;100.00
32933;BME280;19444;50.518;10.870;2023-02-02T04:39:49;96651.91;;;0.92;100.00
32933;BME280;19444;50.518;10.870;2023-02-02T04:42:46;96649.03;;;0.94;100.00
32933;BME280;19444;50.518;10.870;2023-02-02T04:45:43;96643.66;;;1.27;100.00
32933;BME280;19444;50.518;10.870;2023-02-02T04:48:41;96650.38;;;1.18;100.00
32933;BME280;19444;50.518;10.870;2023-02-02T04:51:38;96652.06;;;1.24;100.00
32933;BME280;19444;50.518;10.870;2023-02-02T04:54:35;96654.47;;;1.26;100.00
32933;BME280;19444;50.518;10.870;2023-02-02T04:57:31;96661.13;;;1.28;100.00
32933;BME280;19444;50.518;10.870;2023-02-02T05:00:28;96669.25;;;1.27;100.00
32933;BME280;19444;50.518;10.870;2023-02-02T05:03:25;96656.47;;;1.19;100.00
32933;BME280;19444;50.518;10.870;2023-02-02T05:06:22;96655.38;;;1.14;100.00
32933;BME280;19444;50.518;10.870;2023-02-02T05:09:19;96665.94;;;1.14;100.00
32933;BME280;19444;50.518;10.870;2023-02-02T05:12:16;96669.78;;;1.07;100.00
32933;BME280;19444;50.518;10.870;2023-02-02T05:15:13;96671.75;;;1.17;100.00
32933;BME280;19444;50.518;10.870;2023-02-02T05:18:09;96675.69;;;1.14;100.00
32933;BME280;19444;50.518;10.870;2023-02-02T05:21:06;96674.81;;;1.08;100.00
32933;BME280;19444;50.518;10.870;2023-02-02T05:24:03;96678.44;;;1.02;100.00
32933;BME280;19444;50.518;10.870;2023-02-02T05:27:00;96682.06;;;1.18;100.00
32933;BME280;19444;50.518;10.870;2023-02-02T05:29:57;96689.13;;;1.12;100.00
32933;BME280;19444;50.518;10.870;2023-02-02T05:32:54;96688.09;;;1.13;100.00
32933;BME280;19444;50.518;10.870;2023-02-02T05:35:51;96688.19;;;1.02;100.00
32933;BME280;19444;50.518;10.870;2023-02-02T05:38:48;96690.59;;;1.03;100.00
32933;BME280;19444;50.518;10.870;2023-02-02T05:41:45;96700.59;;;1.01;100.00
32933;BME280;19444;50.518;10.870;2023-02-02T05:44:42;96697.16;;;1.01;100.00
32933;BME280;19444;50.518;10.870;2023-02-02T05:47:39;96702.25;;;1.07;100.00
32933;BME280;19444;50.518;10.870;2023-02-02T05:50:36;96705.88;;;1.01;100.00
32933;BME280;19444;50.518;10.870;2023-02-02T05:53:32;96702.88;;;1.14;100.00
32933;BME280;19444;50.518;10.870;2023-02-02T05:56:29;96713.59;;;1.08;100.00
32933;BME280;19444;50.518;10.870;2023-02-02T05:59:26;96707.22;;;1.04;100.00
32933;BME280;19444;50.518;10.870;2023-02-02T06:02:24;96708.66;;;0.95;100.00
32933;BME280;19444;50.518;10.870;2023-02-02T06:05:21;96713.34;;;1.26;100.00
32933;BME280;19444;50.518;10.870;2023-02-02T06:08:18;96709.25;;;1.19;100.00
32933;BME280;19444;50.518;10.870;2023-02-02T06:11:16;96702.97;;;1.03;100.00
32933;BME280;19444;50.518;10.870;2023-02-02T06:14:13;96713.00;;;1.01;100.00
32933;BME280;19444;50.518;10.870;2023-02-02T06:17:10;96707.06;;;0.94;100.00
32933;BME280;19444;50.518;10.870;2023-02-02T06:20:07;96722.16;;;0.98;100.00
32933;BME280;19444;50.518;10.870;2023-02-02T06:23:04;96728.00;;;1.00;100.00
32933;BME280;19444;50.518;10.870;2023-02-02T06:26:01;96725.84;;;0.97;100.00
32933;BME280;19444;50.518;10.870;2023-02-02T06:28:59;96720.81;;;1.12;100.00
32933;BME280;19444;50.518;10.870;2023-02-02T06:31:55;96725.28;;;0.95;100.00
32933;BME280;19444;50.518;10.870;2023-02-02T06:34:52;96733.22;;;0.95;100.00
32933;BME280;19444;50.518;10.870;2023-02-02T06:37:49;96736.78;;;0.89;100.00
32933;BME280;19444;50.518;10.870;2023-02-02T06:40:46;96736.78;;;0.89;100.00
32933;BME280;19444;50.518;10.870;2023-02-02T06:43:43;96732.72;;;0.98;100.00
32933;BME280;19444;50.518;10.870;2023-02-02T06:46:40;96734.81;;;0.96;100.00
32933;BME280;19444;50.518;10.870;2023-02-02T06:49:37;96739.69;;;1.04;100.00
32933;BME280;19444;50.518;10.870;2023-02-02T06:52:34;96744.00;;;0.94;100.00
32933;BME280;19444;50.518;10.870;2023-02-02T06:55:31;96749.03;;;0.95;100.00
32933;BME280;19444;50.518;10.870;2023-02-02T06:58:29;96748.09;;;1.01;100.00
32933;BME280;19444;50.518;10.870;2023-02-02T07:01:26;96738.47;;;0.95;100.00
32933;BME280;19444;50.518;10.870;2023-02-02T07:04:22;96764.31;;;0.93;100.00
32933;BME280;19444;50.518;10.870;2023-02-02T07:07:19;96765.56;;;0.91;100.00
32933;BME280;19444;50.518;10.870;2023-02-02T07:10:16;96768.84;;;0.98;100.00
32933;BME280;19444;50.518;10.870;2023-02-02T07:13:34;96762.78;;;1.31;100.00
32933;BME280;19444;50.518;10.870;2023-02-02T07:16:31;96762.13;;;1.24;100.00
32933;BME280;19444;50.518;10.870;2023-02-02T07:19:27;96769.59;;;1.10;100.00
32933;BME280;19444;50.518;10.870;2023-02-02T07:22:24;96777.69;;;1.20;100.00
32933;BME280;19444;50.518;10.870;2023-02-02T07:25:21;96781.00;;;1.16;100.00
32933;BME280;19444;50.518;10.870;2023-02-02T07:28:18;96774.38;;;1.13;100.00
32933;BME280;19444;50.518;10.870;2023-02-02T07:31:20;96780.63;;;1.07;100.00
32933;BME280;19444;50.518;10.870;2023-02-02T07:34:17;96776.88;;;1.03;100.00
32933;BME280;19444;50.518;10.870;2023-02-02T07:37:14;96777.16;;;0.90;100.00
32933;BME280;19444;50.518;10.870;2023-02-02T07:40:11;96773.41;;;0.85;100.00
32933;BME280;19444;50.518;10.870;2023-02-02T07:43:08;96769.97;;;0.85;100.00
32933;BME280;19444;50.518;10.870;2023-02-02T07:46:06;96766.47;;;0.96;100.00
32933;BME280;19444;50.518;10.870;2023-02-02T07:49:05;96772.38;;;1.03;100.00
32933;BME280;19444;50.518;10.870;2023-02-02T07:52:02;96769.91;;;0.97;100.00
32933;BME280;19444;50.518;10.870;2023-02-02T07:54:59;96771.25;;;0.99;100.00
32933;BME280;19444;50.518;10.870;2023-02-02T07:58:10;96768.38;;;0.84;100.00
32933;BME280;19444;50.518;10.870;2023-02-02T08:01:08;96770.44;;;0.99;100.00
32933;BME280;19444;50.518;10.870;2023-02-02T08:04:05;96770.16;;;0.95;100.00
32933;BME280;19444;50.518;10.870;2023-02-02T08:07:02;96771.91;;;1.06;100.00
32933;BME280;19444;50.518;10.870;2023-02-02T08:09:58;96781.09;;;1.04;100.00
32933;BME280;19444;50.518;10.870;2023-02-02T08:12:55;96785.44;;;1.10;100.00
32933;BME280;19444;50.518;10.870;2023-02-02T08:15:52;96790.06;;;1.03;100.00
32933;BME280;19444;50.518;10.870;2023-02-02T08:18:49;96789.97;;;0.98;100.00
32933;BME280;19444;50.518;10.870;2023-02-02T08:21:46;96789.19;;;1.14;100.00
32933;BME280;19444;50.518;10.870;2023-02-02T08:24:43;96796.22;;;1.08;100.00
32933;BME280;19444;50.518;10.870;2023-02-02T08:27:39;96791.25;;;0.95;100.00
32933;BME280;19444;50.518;10.870;2023-02-02T08:30:36;96797.97;;;1.03;100.00
32933;BME280;19444;50.518;10.870;2023-02-02T08:33:33;96805.81;;;0.98;100.00
32933;BME280;19444;50.518;10.870;2023-02-02T08:36:30;96804.34;;;0.90;100.00
32933;BME280;19444;50.518;10.870;2023-02-02T08:39:27;96800.84;;;0.84;100.00
32933;BME280;19444;50.518;10.870;2023-02-02T08:42:24;96804.53;;;0.83;100.00
32933;BME280;19444;50.518;10.870;2023-02-02T08:45:20;96808.50;;;0.86;100.00
32933;BME280;19444;50.518;10.870;2023-02-02T08:48:38;96803.00;;;0.88;100.00
32933;BME280;19444;50.518;10.870;2023-02-02T08:51:35;96804.28;;;0.85;100.00
32933;BME280;19444;50.518;10.870;2023-02-02T08:54:31;96803.00;;;0.88;100.00
32933;BME280;19444;50.518;10.870;2023-02-02T08:57:28;96806.03;;;0.79;100.00
32933;BME280;19444;50.518;10.870;2023-02-02T09:00:28;96808.91;;;0.78;100.00
32933;BME280;19444;50.518;10.870;2023-02-02T09:03:24;96812.47;;;0.72;100.00
32933;BME280;19444;50.518;10.870;2023-02-02T09:06:22;96824.31;;;0.69;100.00
32933;BME280;19444;50.518;10.870;2023-02-02T09:09:21;96823.69;;;0.79;100.00
32933;BME280;19444;50.518;10.870;2023-02-02T09:12:18;96827.84;;;0.75;100.00
32933;BME280;19444;50.518;10.870;2023-02-02T09:15:15;96831.59;;;0.79;100.00
32933;BME280;19444;50.518;10.870;2023-02-02T09:18:11;96835.56;;;0.65;100.00
32933;BME280;19444;50.518;10.870;2023-02-02T09:21:10;96833.03;;;0.70;100.00
32933;BME280;19444;50.518;10.870;2023-02-02T09:24:10;96830.25;;;0.76;100.00
32933;BME280;19444;50.518;10.870;2023-02-02T09:27:07;96829.91;;;0.73;100.00
32933;BME280;19444;50.518;10.870;2023-02-02T09:30:04;96839.84;;;0.82;100.00
32933;BME280;19444;50.518;10.870;2023-02-02T09:33:01;96835.19;;;0.73;100.00
32933;BME280;19444;50.518;10.870;2023-02-02T09:39:02;96834.66;;;0.88;100.00
32933;BME280;19444;50.518;10.870;2023-02-02T09:42:11;96847.44;;;0.79;100.00
32933;BME280;19444;50.518;10.870;2023-02-02T09:45:21;96842.28;;;0.72;100.00
32933;BME280;19444;50.518;10.870;2023-02-02T09:48:42;96841.78;;;0.87;100.00
32933;BME280;19444;50.518;10.870;2023-02-02T09:51:43;96840.88;;;0.81;100.00
32933;BME280;19444;50.518;10.870;2023-02-02T09:54:45;96850.41;;;0.82;100.00
32933;BME280;19444;50.518;10.870;2023-02-02T09:57:50;96860.56;;;0.91;100.00
32933;BME280;19444;50.518;10.870;2023-02-02T10:04:03;96852.53;;;0.69;100.00
32933;BME280;19444;50.518;10.870;2023-02-02T10:07:18;96862.88;;;0.87;100.00
32933;BME280;19444;50.518;10.870;2023-02-02T10:10:22;96858.50;;;0.93;100.00
32933;BME280;19444;50.518;10.870;2023-02-02T10:13:27;96871.63;;;1.04;100.00
32933;BME280;19444;50.518;10.870;2023-02-02T10:16:27;96876.50;;;0.96;100.00
32933;BME280;19444;50.518;10.870;2023-02-02T10:19:25;96870.31;;;0.90;100.00
32933;BME280;19444;50.518;10.870;2023-02-02T10:22:26;96872.34;;;1.17;100.00
32933;BME280;19444;50.518;10.870;2023-02-02T10:25:26;96878.03;;;1.08;100.00
32933;BME280;19444;50.518;10.870;2023-02-02T10:38:22;96867.63;;;1.02;100.00
32933;BME280;19444;50.518;10.870;2023-02-02T10:41:34;96874.50;;;1.03;100.00
32933;BME280;19444;50.518;10.870;2023-02-02T10:47:32;96883.16;;;1.15;100.00
32933;BME280;19444;50.518;10.870;2023-02-02T10:50:28;96866.44;;;1.09;100.00
32933;BME280;19444;50.518;10.870;2023-02-02T10:53:27;96871.09;;;1.36;100.00
32933;BME280;19444;50.518;10.870;2023-02-02T10:56:35;96874.84;;;1.23;100.00
32933;BME280;19444;50.518;10.870;2023-02-02T10:59:35;96872.03;;;1.13;100.00
32933;BME280;19444;50.518;10.870;2023-02-02T11:02:37;96884.69;;;1.28;100.00
32933;BME280;19444;50.518;10.870;2023-02-02T11:05:33;96878.19;;;1.19;100.00
32933;BME280;19444;50.518;10.870;2023-02-02T11:08:50;96878.78;;;1.21;100.00
32933;BME280;19444;50.518;10.870;2023-02-02T11:12:00;96877.59;;;1.28;100.00
32933;BME280;19444;50.518;10.870;2023-02-02T11:15:02;96878.22;;;1.35;100.00
32933;BME280;19444;50.518;10.870;2023-02-02T11:18:24;96874.47;;;1.31;100.00
32933;BME280;19444;50.518;10.870;2023-02-02T11:21:26;96880.06;;;1.35;100.00
32933;BME280;19444;50.518;10.870;2023-02-02T11:24:40;96876.16;;;1.37;100.00
32933;BME280;19444;50.518;10.870;2023-02-02T11:27:41;96878.22;;;1.35;100.00
32933;BME280;19444;50.518;10.870;2023-02-02T11:30:38;96879.50;;;1.50;100.00
32933;BME280;19444;50.518;10.870;2023-02-02T11:33:35;96885.44;;;1.40;100.00
32933;BME280;19444;50.518;10.870;2023-02-02T11:36:32;96897.66;;;1.29;100.00
32933;BME280;19444;50.518;10.870;2023-02-02T11:39:29;96894.84;;;1.36;100.00
32933;BME280;19444;50.518;10.870;2023-02-02T11:42:26;96893.81;;;1.37;100.00
32933;BME280;19444;50.518;10.870;2023-02-02T11:45:39;96889.84;;;1.51;100.00
32933;BME280;19444;50.518;10.870;2023-02-02T11:48:38;96902.00;;;1.52;100.00
32933;BME280;19444;50.518;10.870;2023-02-02T11:51:35;96894.41;;;1.56;100.00
32933;BME280;19444;50.518;10.870;2023-02-02T11:54:33;96884.13;;;1.26;100.00
32933;BME280;19444;50.518;10.870;2023-02-02T11:57:31;96889.38;;;1.37;100.00
32933;BME280;19444;50.518;10.870;2023-02-02T12:00:28;96890.78;;;1.45;100.00
32933;BME280;19444;50.518;10.870;2023-02-02T12:03:35;96893.53;;;1.67;100.00
32933;BME280;19444;50.518;10.870;2023-02-02T12:06:33;96902.16;;;1.46;100.00
32933;BME280;19444;50.518;10.870;2023-02-02T12:09:30;96898.00;;;1.66;100.00
32933;BME280;19444;50.518;10.870;2023-02-02T12:18:59;96909.78;;;1.76;100.00
32933;BME280;19444;50.518;10.870;2023-02-02T12:25:31;96911.34;;;1.43;100.00
32933;BME280;19444;50.518;10.870;2023-02-02T12:31:58;96916.56;;;1.55;100.00
32933;BME280;19444;50.518;10.870;2023-02-02T12:35:17;96907.28;;;1.69;100.00
32933;BME280;19444;50.518;10.870;2023-02-02T12:38:54;96916.16;;;1.63;100.00
32933;BME280;19444;50.518;10.870;2023-02-02T12:42:16;96917.34;;;1.55;100.00
32933;BME280;19444;50.518;10.870;2023-02-02T12:55:21;96934.34;;;1.59;100.00
32933;BME280;19444;50.518;10.870;2023-02-02T13:01:55;96930.25;;;1.68;100.00
32933;BME280;19444;50.518;10.870;2023-02-02T13:08:26;96941.22;;;1.77;100.00
32933;BME280;19444;50.518;10.870;2023-02-02T13:11:37;96941.72;;;1.57;100.00
32933;BME280;19444;50.518;10.870;2023-02-02T13:14:42;96944.38;;;1.74;100.00
32933;BME280;19444;50.518;10.870;2023-02-02T13:17:53;96944.19;;;1.81;100.00
32933;BME280;19444;50.518;10.870;2023-02-02T13:21:29;96949.25;;;1.65;100.00
32933;BME280;19444;50.518;10.870;2023-02-02T13:24:23;96949.88;;;1.73;100.00
32933;BME280;19444;50.518;10.870;2023-02-02T13:27:22;96948.44;;;1.82;100.00
32933;BME280;19444;50.518;10.870;2023-02-02T13:30:26;96949.47;;;1.81;100.00
32933;BME280;19444;50.518;10.870;2023-02-02T13:33:32;96950.91;;;1.88;100.00
32933;BME280;19444;50.518;10.870;2023-02-02T13:36:31;96949.16;;;1.77;100.00
32933;BME280;19444;50.518;10.870;2023-02-02T13:39:36;96955.09;;;1.84;100.00
32933;BME280;19444;50.518;10.870;2023-02-02T13:43:30;96965.66;;;1.84;100.00
32933;BME280;19444;50.518;10.870;2023-02-02T13:46:21;96960.84;;;1.81;100.00
32933;BME280;19444;50.518;10.870;2023-02-02T13:49:27;96968.34;;;1.73;100.00
32933;BME280;19444;50.518;10.870;2023-02-02T13:55:56;96979.69;;;1.85;100.00
32933;BME280;19444;50.518;10.870;2023-02-02T14:02:20;96966.72;;;1.83;100.00
32933;BME280;19444;50.518;10.870;2023-02-02T14:05:25;96967.81;;;1.70;100.00
32933;BME280;19444;50.518;10.870;2023-02-02T14:08:24;96970.72;;;1.86;100.00
32933;BME280;19444;50.518;10.870;2023-02-02T14:11:54;96972.78;;;1.84;100.00
32933;BME280;19444;50.518;10.870;2023-02-02T14:14:52;96983.53;;;1.94;100.00
32933;BME280;19444;50.518;10.870;2023-02-02T14:17:51;96977.66;;;1.92;100.00
32933;BME280;19444;50.518;10.870;2023-02-02T14:20:48;96985.09;;;1.61;100.00
32933;BME280;19444;50.518;10.870;2023-02-02T14:23:52;96985.13;;;1.78;100.00
32933;BME280;19444;50.518;10.870;2023-02-02T14:26:57;96986.47;;;1.81;100.00
32933;BME280;19444;50.518;10.870;2023-02-02T14:32:51;96998.63;;;1.65;100.00
32933;BME280;19444;50.518;10.870;2023-02-02T14:38:54;97011.53;;;1.78;100.00
32933;BME280;19444;50.518;10.870;2023-02-02T14:49:11;97019.19;;;1.63;100.00
32933;BME280;19444;50.518;10.870;2023-02-02T14:52:19;97025.88;;;1.54;100.00
32933;BME280;19444;50.518;10.870;2023-02-02T14:55:20;97028.50;;;1.65;100.00
32933;BME280;19444;50.518;10.870;2023-02-02T14:58:37;97029.91;;;1.56;100.00
32933;BME280;19444;50.518;10.870;2023-02-02T15:01:36;97030.97;;;1.72;100.00
32933;BME280;19444;50.518;10.870;2023-02-02T15:04:34;97036.88;;;1.62;100.00
32933;BME280;19444;50.518;10.870;2023-02-02T15:10:55;97045.84;;;1.61;100.00
32933;BME280;19444;50.518;10.870;2023-02-02T15:14:02;97059.97;;;1.38;100.00
32933;BME280;19444;50.518;10.870;2023-02-02T15:17:04;97064.25;;;1.56;100.00
32933;BME280;19444;50.518;10.870;2023-02-02T15:20:32;97063.25;;;1.46;100.00
32933;BME280;19444;50.518;10.870;2023-02-02T15:23:39;97075.69;;;1.33;100.00
32933;BME280;19444;50.518;10.870;2023-02-02T15:26:39;97076.69;;;1.44;100.00
32933;BME280;19444;50.518;10.870;2023-02-02T15:29:43;97079.44;;;1.49;100.00
32933;BME280;19444;50.518;10.870;2023-02-02T15:32:42;97085.16;;;1.46;100.00
32933;BME280;19444;50.518;10.870;2023-02-02T15:35:40;97090.25;;;1.36;100.00
32933;BME280;19444;50.518;10.870;2023-02-02T15:38:38;97094.50;;;1.37;100.00
32933;BME280;19444;50.518;10.870;2023-02-02T15:41:43;97096.00;;;1.33;100.00
32933;BME280;19444;50.518;10.870;2023-02-02T15:44:40;97092.81;;;1.31;100.00
32933;BME280;19444;50.518;10.870;2023-02-02T15:47:37;97102.91;;;1.34;100.00
32933;BME280;19444;50.518;10.870;2023-02-02T15:50:37;97101.66;;;1.25;100.00
32933;BME280;19444;50.518;10.870;2023-02-02T15:56:38;97117.53;;;1.13;100.00
32933;BME280;19444;50.518;10.870;2023-02-02T15:59:39;97129.56;;;1.09;100.00
32933;BME280;19444;50.518;10.870;2023-02-02T16:02:38;97133.44;;;1.30;100.00
32933;BME280;19444;50.518;10.870;2023-02-02T16:08:35;97143.94;;;1.01;100.00
32933;BME280;19444;50.518;10.870;2023-02-02T16:11:33;97144.28;;;0.93;100.00
32933;BME280;19444;50.518;10.870;2023-02-02T16:14:37;97145.09;;;0.94;100.00
32933;BME280;19444;50.518;10.870;2023-02-02T16:17:35;97154.13;;;0.86;100.00
32933;BME280;19444;50.518;10.870;2023-02-02T16:20:33;97162.03;;;0.98;100.00
32933;BME280;19444;50.518;10.870;2023-02-02T16:23:33;97161.94;;;0.93;100.00
32933;BME280;19444;50.518;10.870;2023-02-02T16:26:30;97167.00;;;0.94;100.00
32933;BME280;19444;50.518;10.870;2023-02-02T16:29:28;97169.84;;;0.81;100.00
32933;BME280;19444;50.518;10.870;2023-02-02T16:32:34;97187.03;;;0.72;100.00
32933;BME280;19444;50.518;10.870;2023-02-02T16:35:34;97195.56;;;0.74;100.00
32933;BME280;19444;50.518;10.870;2023-02-02T16:38:34;97196.13;;;0.88;100.00
32933;BME280;19444;50.518;10.870;2023-02-02T16:41:33;97199.56;;;1.00;100.00
32933;BME280;19444;50.518;10.870;2023-02-02T16:44:40;97207.56;;;0.70;100.00
32933;BME280;19444;50.518;10.870;2023-02-02T16:47:39;97211.94;;;0.76;100.00
32933;BME280;19444;50.518;10.870;2023-02-02T16:50:35;97218.72;;;0.83;100.00
32933;BME280;19444;50.518;10.870;2023-02-02T16:53:32;97217.94;;;0.95;100.00
32933;BME280;19444;50.518;10.870;2023-02-02T16:56:43;97213.53;;;0.65;100.00
32933;BME280;19444;50.518;10.870;2023-02-02T16:59:41;97224.44;;;0.69;100.00
32933;BME280;19444;50.518;10.870;2023-02-02T17:02:44;97225.31;;;0.51;100.00
32933;BME280;19444;50.518;10.870;2023-02-02T17:05:48;97231.41;;;0.63;100.00
32933;BME280;19444;50.518;10.870;2023-02-02T17:08:46;97229.91;;;0.55;100.00
32933;BME280;19444;50.518;10.870;2023-02-02T17:12:00;97244.34;;;0.53;100.00
32933;BME280;19444;50.518;10.870;2023-02-02T17:15:00;97240.66;;;0.54;100.00
32933;BME280;19444;50.518;10.870;2023-02-02T17:18:01;97239.75;;;0.48;100.00
32933;BME280;19444;50.518;10.870;2023-02-02T17:20:58;97246.31;;;0.57;100.00
32933;BME280;19444;50.518;10.870;2023-02-02T17:23:59;97252.97;;;0.60;100.00